createdAt,value
2019-02-03T00:00:23.362Z,45.39
2019-02-03T00:02:24.973Z,45.69
2019-02-03T00:04:26.574Z,46.09
2019-02-03T00:06:28.173Z,46.68
2019-02-03T00:08:29.862Z,46.99
2019-02-03T00:10:31.480Z,47.19
2019-02-03T00:12:33.108Z,47.43
2019-02-03T00:14:34.721Z,47.65
2019-02-03T00:16:36.349Z,47.98
2019-02-03T00:18:37.978Z,48.13
2019-02-03T00:20:39.581Z,48.34
2019-02-03T00:22:41.186Z,48.61
2019-02-03T00:24:42.790Z,48.80
2019-02-03T00:26:44.456Z,49.10
2019-02-03T00:28:46.097Z,48.99
2019-02-03T00:30:47.718Z,49.32
2019-02-03T00:32:51.530Z,49.42
2019-02-03T00:34:51.015Z,49.69
2019-02-03T00:36:52.621Z,49.97
2019-02-03T00:38:54.225Z,49.98
2019-02-03T00:40:55.913Z,50.24
2019-02-03T00:42:57.527Z,50.28
2019-02-03T00:44:59.178Z,50.38
2019-02-03T00:47:00.799Z,50.55
2019-02-03T00:49:02.403Z,50.61
2019-02-03T00:51:04.020Z,50.88
2019-02-03T00:53:05.669Z,51.18
2019-02-03T00:55:07.287Z,51.00
2019-02-03T00:57:08.890Z,51.54
2019-02-03T00:59:10.516Z,51.67
2019-02-03T01:01:12.122Z,51.59
2019-02-03T01:03:13.764Z,51.76
2019-02-03T01:05:15.399Z,51.54
2019-02-03T01:07:27.229Z,51.66
2019-02-03T01:09:18.642Z,51.71
2019-02-03T01:11:20.274Z,51.58
2019-02-03T01:13:21.891Z,51.66
2019-02-03T01:15:23.495Z,51.67
2019-02-03T01:17:25.108Z,51.54
2019-02-03T01:19:26.724Z,51.65
2019-02-03T01:21:28.391Z,51.65
2019-02-03T01:23:29.994Z,51.67
2019-02-03T01:25:31.585Z,51.76
2019-02-03T01:27:33.189Z,51.72
2019-02-03T01:29:34.832Z,51.63
2019-02-03T01:31:36.431Z,51.81
2019-02-03T01:33:38.076Z,52.00
2019-02-03T01:35:39.692Z,51.92
2019-02-03T01:37:41.869Z,52.06
2019-02-03T01:39:42.996Z,52.33
2019-02-03T01:41:44.611Z,52.49
2019-02-03T01:43:46.214Z,52.85
2019-02-03T01:45:47.872Z,52.83
2019-02-03T01:47:49.571Z,52.92
2019-02-03T01:49:51.188Z,53.09
2019-02-03T01:51:52.797Z,53.72
2019-02-03T01:53:54.443Z,53.77
2019-02-03T01:55:56.059Z,53.78
2019-02-03T01:57:57.695Z,54.69
2019-02-03T01:59:59.328Z,54.32
2019-02-03T02:02:00.971Z,54.64
2019-02-03T02:04:02.576Z,54.81
2019-02-03T02:06:04.190Z,54.69
2019-02-03T02:08:05.840Z,55.14
2019-02-03T02:10:07.436Z,54.96
2019-02-03T02:12:09.047Z,55.12
2019-02-03T02:14:10.649Z,55.36
2019-02-03T02:16:12.288Z,55.38
2019-02-03T02:18:13.899Z,55.50
2019-02-03T02:20:15.506Z,55.43
2019-02-03T02:22:17.163Z,55.81
2019-02-03T02:24:18.752Z,55.70
2019-02-03T02:26:20.345Z,55.98
2019-02-03T02:28:21.959Z,55.80
2019-02-03T02:30:23.625Z,56.28
2019-02-03T02:32:25.230Z,56.18
2019-02-03T02:34:26.882Z,56.22
2019-02-03T02:36:28.485Z,56.51
2019-02-03T02:38:30.098Z,56.43
2019-02-03T02:40:31.743Z,56.31
2019-02-03T02:42:33.397Z,56.66
2019-02-03T02:44:35.011Z,56.82
2019-02-03T02:46:36.608Z,55.64
2019-02-03T02:48:38.214Z,55.65
2019-02-03T02:50:39.852Z,55.38
2019-02-03T02:52:41.472Z,55.17
2019-02-03T02:54:43.105Z,55.26
2019-02-03T02:56:44.706Z,55.38
2019-02-03T02:58:46.309Z,55.27
2019-02-03T03:00:47.987Z,54.99
2019-02-03T03:02:49.602Z,54.84
2019-02-03T03:04:51.290Z,54.82
2019-02-03T03:06:52.901Z,54.70
2019-02-03T03:08:54.524Z,54.70
2019-02-03T03:10:56.130Z,54.56
2019-02-03T03:12:57.740Z,54.62
2019-02-03T03:14:59.355Z,54.67
2019-02-03T03:17:01.061Z,54.60
2019-02-03T03:19:02.745Z,54.69
2019-02-03T03:21:04.345Z,54.54
2019-02-03T03:23:05.935Z,54.55
2019-02-03T03:25:07.562Z,54.66
2019-02-03T03:27:09.207Z,54.50
2019-02-03T03:29:10.810Z,54.69
2019-02-03T03:31:12.414Z,54.65
2019-02-03T03:33:14.050Z,54.67
2019-02-03T03:35:15.698Z,54.79
2019-02-03T03:37:18.083Z,55.03
2019-02-03T03:39:19.739Z,55.11
2019-02-03T03:41:21.348Z,54.85
2019-02-03T03:43:22.962Z,55.48
2019-02-03T03:45:24.650Z,55.76
2019-02-03T03:47:26.244Z,55.63
2019-02-03T03:49:27.854Z,55.64
2019-02-03T03:51:29.468Z,55.63
2019-02-03T03:53:31.069Z,55.81
2019-02-03T03:55:32.716Z,55.95
2019-02-03T03:57:34.366Z,55.63
2019-02-03T03:59:35.976Z,55.65
2019-02-03T04:01:37.568Z,55.62
2019-02-03T04:03:39.180Z,55.90
2019-02-03T04:05:40.794Z,55.51
2019-02-03T04:07:42.402Z,55.37
2019-02-03T04:09:44.008Z,55.86
2019-02-03T04:11:45.623Z,55.38
2019-02-03T04:13:47.284Z,55.40
2019-02-03T04:15:48.926Z,55.37
2019-02-03T04:17:50.536Z,55.41
2019-02-03T04:19:52.142Z,55.25
2019-02-03T04:21:53.788Z,55.13
2019-02-03T04:23:55.407Z,55.05
2019-02-03T04:25:57.014Z,55.01
2019-02-03T04:27:58.640Z,55.38
2019-02-03T04:30:00.368Z,55.21
2019-02-03T04:32:01.925Z,55.16
2019-02-03T04:34:03.537Z,55.22
2019-02-03T04:36:05.155Z,54.99
2019-02-03T04:38:06.750Z,54.88
2019-02-03T04:40:08.346Z,54.80
2019-02-03T04:42:10.005Z,54.86
2019-02-03T04:44:11.624Z,54.66
2019-02-03T04:46:13.220Z,54.94
2019-02-03T04:48:14.817Z,54.94
2019-02-03T04:50:16.442Z,54.62
2019-02-03T04:52:18.045Z,54.49
2019-02-03T04:54:19.650Z,54.80
2019-02-03T04:56:21.258Z,54.71
2019-02-03T04:58:22.867Z,55.02
2019-02-03T05:00:24.484Z,54.82
2019-02-03T05:02:26.122Z,55.13
2019-02-03T05:04:27.730Z,54.88
2019-02-03T05:06:29.344Z,54.78
2019-02-03T05:08:30.988Z,54.95
2019-02-03T05:10:32.593Z,55.00
2019-02-03T05:12:34.188Z,54.68
2019-02-03T05:14:35.789Z,54.85
2019-02-03T05:16:37.431Z,54.94
2019-02-03T05:18:39.034Z,54.72
2019-02-03T05:20:40.631Z,54.71
2019-02-03T05:22:42.225Z,54.92
2019-02-03T05:24:43.840Z,54.85
2019-02-03T05:26:45.460Z,55.19
2019-02-03T05:28:47.067Z,55.11
2019-02-03T05:30:48.699Z,54.85
2019-02-03T05:32:50.308Z,54.96
2019-02-03T05:34:51.960Z,54.79
2019-02-03T05:36:53.565Z,54.77
2019-02-03T05:38:55.442Z,55.05
2019-02-03T05:40:56.800Z,55.07
2019-02-03T05:42:58.405Z,55.07
2019-02-03T05:45:00.010Z,55.09
2019-02-03T05:47:01.614Z,55.24
2019-02-03T05:49:03.261Z,55.23
2019-02-03T05:51:04.866Z,55.30
2019-02-03T05:53:06.521Z,55.50
2019-02-03T05:55:08.136Z,55.82
2019-02-03T05:57:09.748Z,55.98
2019-02-03T05:59:11.351Z,55.91
2019-02-03T06:01:12.976Z,55.79
2019-02-03T06:03:14.581Z,55.75
2019-02-03T06:05:16.186Z,55.84
2019-02-03T06:07:17.835Z,55.83
2019-02-03T06:09:19.433Z,56.14
2019-02-03T06:11:21.087Z,56.49
2019-02-03T06:13:22.704Z,56.18
2019-02-03T06:15:24.319Z,56.31
2019-02-03T06:17:25.939Z,56.59
2019-02-03T06:19:27.607Z,56.54
2019-02-03T06:21:29.214Z,56.28
2019-02-03T06:23:30.818Z,56.15
2019-02-03T06:25:32.450Z,56.42
2019-02-03T06:27:34.054Z,56.04
2019-02-03T06:29:35.650Z,55.86
2019-02-03T06:31:37.250Z,55.77
2019-02-03T06:33:38.848Z,55.76
2019-02-03T06:35:40.500Z,55.80
2019-02-03T06:37:42.121Z,55.70
2019-02-03T06:39:48.639Z,55.70
2019-02-03T06:41:45.362Z,55.60
2019-02-03T06:43:46.961Z,55.51
2019-02-03T06:45:51.041Z,55.79
2019-02-03T06:47:52.693Z,55.93
2019-02-03T06:49:54.298Z,55.98
2019-02-03T06:51:55.892Z,56.09
2019-02-03T06:53:57.520Z,56.20
2019-02-03T06:55:59.149Z,55.94
2019-02-03T06:58:00.755Z,56.27
2019-02-03T07:00:02.365Z,56.42
2019-02-03T07:02:03.969Z,56.47
2019-02-03T07:04:05.629Z,56.56
2019-02-03T07:06:07.281Z,56.28
2019-02-03T07:08:08.882Z,56.53
2019-02-03T07:10:10.490Z,56.10
2019-02-03T07:12:12.101Z,56.31
2019-02-03T07:14:13.773Z,56.55
2019-02-03T07:16:15.428Z,56.71
2019-02-03T07:18:17.021Z,56.80
2019-02-03T07:20:18.636Z,56.89
2019-02-03T07:22:20.241Z,57.23
2019-02-03T07:24:21.847Z,57.31
2019-02-03T07:26:23.436Z,57.03
2019-02-03T07:28:25.076Z,57.09
2019-02-03T07:30:26.698Z,57.27
2019-02-03T07:32:28.361Z,56.99
2019-02-03T07:34:29.956Z,56.77
2019-02-03T07:36:31.672Z,56.32
2019-02-03T07:38:33.642Z,56.05
2019-02-03T07:40:35.302Z,55.87
2019-02-03T07:42:36.942Z,55.72
2019-02-03T07:44:38.542Z,55.47
2019-02-03T07:46:40.202Z,55.49
2019-02-03T07:48:41.806Z,55.02
2019-02-03T07:50:43.471Z,54.52
2019-02-03T07:52:45.129Z,53.93
2019-02-03T07:54:46.739Z,54.40
2019-02-03T07:56:48.340Z,54.70
2019-02-03T07:58:49.991Z,54.49
2019-02-03T08:00:51.594Z,54.53
2019-02-03T08:02:53.216Z,54.66
2019-02-03T08:04:54.827Z,54.78
2019-02-03T08:06:56.444Z,54.74
2019-02-03T08:08:58.045Z,54.93
2019-02-03T08:10:59.852Z,54.51
2019-02-03T08:13:01.467Z,54.68
2019-02-03T08:15:03.071Z,54.91
2019-02-03T08:17:04.721Z,54.61
2019-02-03T08:19:06.316Z,54.44
2019-02-03T08:21:07.907Z,54.38
2019-02-03T08:23:09.583Z,54.76
2019-02-03T08:25:11.187Z,54.58
2019-02-03T08:27:12.827Z,55.15
2019-02-03T08:29:14.969Z,55.12
2019-02-03T08:31:16.101Z,55.12
2019-02-03T08:33:17.713Z,54.71
2019-02-03T08:35:19.986Z,54.66
2019-02-03T08:37:21.060Z,54.62
2019-02-03T08:39:22.662Z,54.61
2019-02-03T08:41:24.303Z,54.51
2019-02-03T08:43:25.916Z,54.50
2019-02-03T08:45:27.523Z,54.38
2019-02-03T08:47:29.125Z,54.29
2019-02-03T08:49:30.729Z,54.27
2019-02-03T08:51:32.519Z,54.15
2019-02-03T08:53:34.000Z,54.14
2019-02-03T08:55:35.613Z,54.03
2019-02-03T08:57:37.236Z,53.97
2019-02-03T08:59:38.851Z,53.92
2019-02-03T09:01:40.537Z,53.77
2019-02-03T09:03:42.180Z,53.63
2019-02-03T09:05:43.801Z,53.49
2019-02-03T09:07:45.420Z,53.30
2019-02-03T09:09:47.036Z,52.99
2019-02-03T09:11:48.686Z,52.78
2019-02-03T09:13:50.294Z,52.57
2019-02-03T09:15:52.125Z,52.40
2019-02-03T09:17:53.604Z,52.10
2019-02-03T09:19:57.966Z,51.93
2019-02-03T09:21:56.928Z,51.69
2019-02-03T09:23:58.583Z,51.63
2019-02-03T09:26:00.193Z,51.52
2019-02-03T09:28:01.895Z,51.48
2019-02-03T09:30:03.488Z,51.48
2019-02-03T09:32:05.097Z,51.51
2019-02-03T09:34:06.723Z,51.51
2019-02-03T09:36:08.367Z,51.54
2019-02-03T09:38:10.062Z,51.61
2019-02-03T09:40:11.653Z,51.62
2019-02-03T09:42:13.308Z,51.66
2019-02-03T09:44:14.925Z,51.63
2019-02-03T09:46:16.526Z,51.65
2019-02-03T09:48:18.176Z,51.69
2019-02-03T09:50:19.792Z,51.73
2019-02-03T09:52:21.483Z,51.77
2019-02-03T09:54:23.104Z,51.83
2019-02-03T09:56:24.715Z,51.86
2019-02-03T09:58:26.314Z,51.94
2019-02-03T10:00:27.937Z,51.95
2019-02-03T10:02:29.578Z,52.04
2019-02-03T10:04:31.239Z,52.06
2019-02-03T10:06:32.860Z,52.10
2019-02-03T10:08:40.731Z,52.14
2019-02-03T10:10:36.149Z,52.09
2019-02-03T10:12:37.786Z,52.09
2019-02-03T10:14:39.385Z,52.04
2019-02-03T10:16:41.002Z,52.02
2019-02-03T10:18:42.823Z,52.02
2019-02-03T10:20:44.448Z,52.01
2019-02-03T10:22:46.140Z,51.97
2019-02-03T10:24:47.754Z,51.93
2019-02-03T10:26:49.357Z,51.85
2019-02-03T10:28:50.984Z,51.83
2019-02-03T10:30:52.623Z,51.72
2019-02-03T10:32:54.222Z,51.57
2019-02-03T10:34:55.826Z,43.27
2019-02-03T10:36:57.442Z,42.55
2019-02-03T10:38:59.045Z,40.81
2019-02-03T10:41:01.312Z,44.25
2019-02-03T10:43:02.952Z,43.46
2019-02-03T10:45:04.565Z,42.15
2019-02-03T10:47:06.225Z,41.83
2019-02-03T10:49:07.835Z,42.35
2019-02-03T10:51:09.438Z,42.51
2019-02-03T10:53:11.074Z,44.92
2019-02-03T10:55:12.711Z,44.53
2019-02-03T10:57:14.325Z,44.93
2019-02-03T10:59:15.931Z,45.06
2019-02-03T11:01:17.604Z,45.05
2019-02-03T11:03:19.215Z,45.27
2019-02-03T11:05:20.835Z,45.74
2019-02-03T11:07:22.507Z,45.85
2019-02-03T11:09:24.184Z,45.76
2019-02-03T11:13:28.220Z,45.74
2019-02-03T11:15:29.883Z,45.68
2019-02-03T11:17:31.534Z,45.65
2019-02-03T11:19:33.125Z,45.64
2019-02-03T11:21:34.731Z,45.65
2019-02-03T11:23:36.508Z,46.04
2019-02-03T11:25:38.137Z,45.83
2019-02-03T11:27:40.351Z,45.53
2019-02-03T11:29:41.965Z,45.45
2019-02-03T11:31:43.632Z,45.45
2019-02-03T11:33:45.283Z,49.24
2019-02-03T11:35:46.921Z,48.65
2019-02-03T11:37:48.682Z,50.39
2019-02-03T11:39:50.395Z,49.03
2019-02-03T11:41:52.058Z,51.09
2019-02-03T11:43:53.669Z,50.29
2019-02-03T11:45:55.306Z,49.72
2019-02-03T11:47:56.918Z,49.92
2019-02-03T11:50:00.144Z,49.75
2019-02-03T11:52:00.259Z,49.54
2019-02-03T11:54:01.884Z,49.73
2019-02-03T11:56:03.564Z,49.79
2019-02-03T11:58:05.250Z,50.05
2019-02-03T12:00:06.975Z,50.08
2019-02-03T12:02:08.587Z,50.07
2019-02-03T12:04:10.518Z,49.90
2019-02-03T12:06:12.187Z,49.82
2019-02-03T12:08:13.810Z,49.81
2019-02-03T12:10:15.404Z,49.81
2019-02-03T12:12:17.010Z,49.75
2019-02-03T12:14:18.620Z,49.80
2019-02-03T12:16:20.212Z,49.80
2019-02-03T12:18:21.819Z,49.91
2019-02-03T12:20:23.451Z,49.90
2019-02-03T12:22:25.066Z,49.92
2019-02-03T12:24:26.714Z,49.90
2019-02-03T12:26:28.375Z,49.95
2019-02-03T12:28:29.997Z,49.89
2019-02-03T12:30:31.630Z,49.97
2019-02-03T12:32:33.229Z,49.97
2019-02-03T12:34:34.848Z,49.96
2019-02-03T12:36:36.553Z,49.92
2019-02-03T12:38:38.146Z,49.93
2019-02-03T12:40:39.781Z,49.91
2019-02-03T12:42:41.401Z,49.89
2019-02-03T12:44:43.066Z,49.88
2019-02-03T12:46:44.709Z,49.89
2019-02-03T12:48:46.321Z,49.81
2019-02-03T12:50:47.966Z,49.79
2019-02-03T12:52:49.595Z,49.73
2019-02-03T12:54:51.193Z,49.74
2019-02-03T12:56:52.807Z,49.71
2019-02-03T12:58:54.414Z,49.64
2019-02-03T13:00:56.018Z,49.61
2019-02-03T13:02:57.650Z,49.55
2019-02-03T13:04:59.263Z,49.72
2019-02-03T13:07:00.880Z,49.54
2019-02-03T13:09:05.855Z,49.92
2019-02-03T13:11:04.183Z,49.75
2019-02-03T13:13:05.797Z,50.19
2019-02-03T13:15:07.433Z,50.29
2019-02-03T13:17:09.091Z,48.88
2019-02-03T13:19:10.680Z,49.26
2019-02-03T13:21:12.267Z,49.25
2019-02-03T13:23:13.908Z,49.32
2019-02-03T13:25:15.528Z,49.36
2019-02-03T13:27:17.129Z,49.43
2019-02-03T13:29:18.782Z,49.52
2019-02-03T13:31:20.378Z,49.40
2019-02-03T13:33:22.140Z,49.32
2019-02-03T13:35:23.828Z,49.23
2019-02-03T13:37:25.508Z,49.14
2019-02-03T13:39:27.114Z,49.01
2019-02-03T13:41:28.742Z,48.91
2019-02-03T13:43:30.362Z,48.83
2019-02-03T13:45:31.980Z,48.83
2019-02-03T13:47:33.609Z,48.66
2019-02-03T13:49:35.209Z,48.51
2019-02-03T13:51:36.866Z,48.51
2019-02-03T13:53:38.480Z,48.38
2019-02-03T13:55:40.110Z,48.24
2019-02-03T13:57:41.796Z,48.22
2019-02-03T13:59:43.417Z,48.07
2019-02-03T14:01:45.026Z,47.92
2019-02-03T14:03:46.674Z,47.88
2019-02-03T14:05:48.278Z,47.90
2019-02-03T14:07:49.880Z,47.75
2019-02-03T14:09:51.530Z,47.76
2019-02-03T14:11:53.144Z,47.58
2019-02-03T14:13:54.736Z,47.50
2019-02-03T14:15:56.701Z,47.57
2019-02-03T14:17:58.379Z,47.40
2019-02-03T14:20:00.092Z,47.44
2019-02-03T14:22:01.723Z,47.40
2019-02-03T14:24:03.407Z,47.29
2019-02-03T14:26:05.058Z,47.30
2019-02-03T14:28:06.661Z,47.27
2019-02-03T14:30:08.284Z,47.24
2019-02-03T14:32:10.078Z,47.37
2019-02-03T14:34:11.605Z,47.32
2019-02-03T14:36:13.224Z,47.30
2019-02-03T14:38:14.891Z,47.40
2019-02-03T14:40:16.511Z,47.29
2019-02-03T14:42:18.113Z,47.37
2019-02-03T14:44:19.749Z,47.36
2019-02-03T14:46:21.345Z,47.31
2019-02-03T14:48:22.949Z,47.41
2019-02-03T14:50:24.846Z,47.33
2019-02-03T14:52:26.235Z,47.28
2019-02-03T14:54:27.888Z,47.34
2019-02-03T14:56:29.663Z,47.47
2019-02-03T14:58:31.390Z,47.66
2019-02-03T15:00:33.060Z,48.03
2019-02-03T15:02:34.780Z,48.59
2019-02-03T15:04:36.400Z,48.76
2019-02-03T15:06:38.043Z,49.37
2019-02-03T15:08:39.660Z,49.41
2019-02-03T15:10:41.352Z,49.47
2019-02-03T15:12:42.961Z,49.49
2019-02-03T15:14:44.631Z,49.44
2019-02-03T15:16:46.230Z,49.87
2019-02-03T15:18:47.837Z,49.74
2019-02-03T15:20:49.475Z,50.08
2019-02-03T15:22:51.096Z,50.18
2019-02-03T15:24:52.737Z,50.30
2019-02-03T15:26:54.352Z,50.23
2019-02-03T15:28:55.999Z,50.33
2019-02-03T15:30:57.625Z,50.25
2019-02-03T15:32:59.239Z,50.45
2019-02-03T15:35:00.845Z,49.81
2019-02-03T15:37:03.136Z,49.47
2019-02-03T15:39:04.854Z,49.28
2019-02-03T15:41:06.500Z,49.44
2019-02-03T15:43:08.102Z,49.34
2019-02-03T15:45:09.763Z,49.46
2019-02-03T15:47:12.179Z,49.41
2019-02-03T15:49:13.782Z,49.82
2019-02-03T15:51:17.982Z,49.85
2019-02-03T15:53:17.057Z,49.00
2019-02-03T15:55:18.672Z,49.97
2019-02-03T15:57:20.306Z,50.82
2019-02-03T15:59:21.935Z,51.45
2019-02-03T16:01:23.552Z,51.41
2019-02-03T16:03:25.177Z,51.69
2019-02-03T16:05:26.904Z,51.59
2019-02-03T16:07:28.519Z,51.62
2019-02-03T16:09:30.136Z,51.89
2019-02-03T16:11:31.745Z,51.90
2019-02-03T16:13:36.986Z,51.76
2019-02-03T16:15:35.135Z,51.60
2019-02-03T16:17:36.812Z,51.69
2019-02-03T16:19:38.423Z,51.71
2019-02-03T16:21:40.029Z,51.35
2019-02-03T16:23:41.689Z,51.35
2019-02-03T16:25:43.326Z,51.34
2019-02-03T16:27:44.956Z,51.43
2019-02-03T16:29:46.600Z,51.70
2019-02-03T16:31:48.228Z,51.98
2019-02-03T16:33:49.862Z,51.24
2019-02-03T16:35:51.501Z,51.54
2019-02-03T16:37:53.148Z,51.33
2019-02-03T16:39:54.794Z,51.66
2019-02-03T16:41:56.399Z,51.67
2019-02-03T16:43:58.058Z,51.70
2019-02-03T16:45:59.678Z,51.84
2019-02-03T16:48:01.285Z,51.79
2019-02-03T16:50:02.951Z,51.88
2019-02-03T16:52:04.585Z,51.61
2019-02-03T16:54:06.230Z,51.84
2019-02-03T16:56:07.844Z,51.46
2019-02-03T16:58:09.475Z,51.16
2019-02-03T17:00:11.091Z,50.91
2019-02-03T17:02:12.693Z,51.27
2019-02-03T17:04:14.307Z,50.81
2019-02-03T17:06:15.932Z,53.33
2019-02-03T17:08:17.534Z,50.91
2019-02-03T17:10:19.204Z,50.55
2019-02-03T17:12:20.864Z,51.13
2019-02-03T17:14:22.474Z,51.23
2019-02-03T17:16:24.121Z,51.31
2019-02-03T17:18:25.722Z,51.23
2019-02-03T17:20:27.323Z,51.46
2019-02-03T17:22:28.958Z,51.40
2019-02-03T17:24:30.569Z,51.79
2019-02-03T17:26:32.179Z,51.71
2019-02-03T17:28:33.793Z,51.63
2019-02-03T17:30:35.454Z,51.53
2019-02-03T17:32:37.112Z,51.41
2019-02-03T17:34:38.951Z,51.28
2019-02-03T17:36:42.010Z,50.68
2019-02-03T17:38:42.202Z,50.23
2019-02-03T17:40:43.801Z,50.14
2019-02-03T17:42:45.420Z,49.99
2019-02-03T17:44:47.012Z,48.66
2019-02-03T17:46:48.629Z,48.32
2019-02-03T17:48:50.240Z,49.13
2019-02-03T17:50:51.860Z,49.94
2019-02-03T17:52:53.494Z,49.76
2019-02-03T17:54:55.112Z,49.87
2019-02-03T17:56:56.769Z,49.93
2019-02-03T17:58:58.392Z,49.95
2019-02-03T18:01:00.069Z,49.67
2019-02-03T18:03:03.026Z,50.38
2019-02-03T18:05:04.698Z,47.98
2019-02-03T18:07:06.364Z,48.72
2019-02-03T18:09:07.974Z,49.64
2019-02-03T18:11:09.583Z,50.30
2019-02-03T18:13:11.205Z,50.43
2019-02-03T18:15:12.825Z,50.66
2019-02-03T18:17:14.451Z,48.90
2019-02-03T18:19:16.119Z,49.50
2019-02-03T18:21:17.779Z,48.70
2019-02-03T18:23:19.411Z,49.04
2019-02-03T18:25:21.015Z,48.58
2019-02-03T18:27:22.663Z,49.23
2019-02-03T18:29:24.252Z,49.44
2019-02-03T18:31:25.844Z,49.27
2019-02-03T18:33:27.436Z,47.97
2019-02-03T18:35:29.047Z,48.78
2019-02-03T18:37:30.705Z,49.25
2019-02-03T18:39:32.355Z,49.32
2019-02-03T18:41:33.948Z,50.58
2019-02-03T18:43:35.578Z,49.85
2019-02-03T18:45:37.229Z,49.62
2019-02-03T18:47:38.830Z,49.72
2019-02-03T18:49:40.436Z,49.16
2019-02-03T18:51:42.089Z,48.51
2019-02-03T18:53:43.706Z,48.62
2019-02-03T18:55:45.385Z,48.45
2019-02-03T18:57:46.990Z,49.45
2019-02-03T18:59:48.595Z,49.45
2019-02-03T19:01:50.215Z,49.68
2019-02-03T19:03:51.860Z,49.81
2019-02-03T19:05:53.466Z,50.09
2019-02-03T19:07:55.074Z,50.07
2019-02-03T19:09:56.731Z,50.05
2019-02-03T19:11:58.685Z,50.45
2019-02-03T19:14:00.285Z,49.98
2019-02-03T19:16:01.880Z,48.28
2019-02-03T19:18:03.477Z,49.18
2019-02-03T19:20:05.102Z,49.18
2019-02-03T19:22:06.821Z,49.28
2019-02-03T19:24:08.434Z,49.47
2019-02-03T19:26:10.083Z,49.31
2019-02-03T19:28:11.671Z,49.41
2019-02-03T19:30:13.292Z,49.39
2019-02-03T19:32:14.933Z,49.49
2019-02-03T19:34:16.523Z,49.42
2019-02-03T19:36:18.145Z,49.06
2019-02-03T19:38:19.916Z,49.11
2019-02-03T19:40:21.723Z,48.94
2019-02-03T19:42:23.324Z,48.96
2019-02-03T19:44:24.940Z,48.83
2019-02-03T19:46:26.554Z,49.26
2019-02-03T19:48:28.173Z,48.74
2019-02-03T19:50:29.788Z,48.95
2019-02-03T19:52:31.460Z,49.04
2019-02-03T19:54:33.072Z,49.09
2019-02-03T19:56:34.696Z,49.08
2019-02-03T19:58:36.459Z,49.31
2019-02-03T20:00:38.077Z,49.53
2019-02-03T20:02:39.772Z,49.76
2019-02-03T20:04:41.439Z,49.57
2019-02-03T20:06:43.138Z,49.52
2019-02-03T20:08:44.733Z,49.58
2019-02-03T20:10:46.347Z,49.44
2019-02-03T20:12:48.000Z,49.68
2019-02-03T20:14:49.658Z,49.68
2019-02-03T20:16:51.333Z,50.74
2019-02-03T20:18:53.029Z,49.66
2019-02-03T20:20:54.631Z,49.33
2019-02-03T20:22:56.296Z,49.82
2019-02-03T20:24:57.954Z,50.08
2019-02-03T20:26:59.559Z,50.30
2019-02-03T20:29:01.160Z,50.30
2019-02-03T20:31:02.779Z,50.37
2019-02-03T20:33:04.408Z,50.32
2019-02-03T20:35:06.061Z,50.49
2019-02-03T20:37:07.684Z,48.59
2019-02-03T20:39:09.385Z,49.98
2019-02-03T20:41:11.013Z,49.77
2019-02-03T20:43:12.640Z,49.48
2019-02-03T20:45:20.902Z,49.53
2019-02-03T20:47:15.933Z,49.73
2019-02-03T20:49:17.547Z,48.62
2019-02-03T20:51:19.232Z,48.96
2019-02-03T20:53:20.907Z,49.21
2019-02-03T20:55:22.630Z,48.36
2019-02-03T20:57:24.339Z,47.66
2019-02-03T20:59:25.994Z,47.86
2019-02-03T21:01:27.618Z,47.50
2019-02-03T21:03:29.222Z,47.76
2019-02-03T21:05:30.859Z,47.88
2019-02-03T21:07:32.486Z,48.46
2019-02-03T21:09:34.085Z,48.46
2019-02-03T21:11:35.700Z,48.71
2019-02-03T21:13:37.301Z,48.84
2019-02-03T21:15:38.931Z,48.81
2019-02-03T21:17:40.604Z,48.89
2019-02-03T21:19:42.249Z,49.08
2019-02-03T21:21:43.863Z,49.11
2019-02-03T21:23:45.482Z,48.13
2019-02-03T21:25:47.094Z,47.80
2019-02-03T21:27:48.695Z,47.78
2019-02-03T21:29:50.302Z,48.82
2019-02-03T21:31:51.947Z,49.13
2019-02-03T21:33:53.611Z,49.92
2019-02-03T21:35:55.264Z,49.89
2019-02-03T21:37:56.908Z,49.63
2019-02-03T21:39:58.523Z,49.17
2019-02-03T21:42:00.136Z,48.29
2019-02-03T21:44:01.786Z,49.24
2019-02-03T21:46:03.380Z,49.64
2019-02-03T21:48:05.059Z,49.62
2019-02-03T21:50:06.652Z,49.82
2019-02-03T21:52:08.253Z,49.73
2019-02-03T21:54:09.901Z,49.77
2019-02-03T21:56:11.549Z,49.91
2019-02-03T21:58:13.158Z,49.85
2019-02-03T22:00:14.824Z,49.97
2019-02-03T22:02:17.791Z,49.93
2019-02-03T22:04:18.140Z,49.93
2019-02-03T22:06:19.748Z,49.85
2019-02-03T22:08:21.453Z,49.76
2019-02-03T22:10:23.098Z,49.63
2019-02-03T22:12:24.900Z,49.34
2019-02-03T22:14:26.533Z,49.43
2019-02-03T22:16:28.126Z,49.40
2019-02-03T22:18:29.722Z,49.38
2019-02-03T22:20:31.384Z,49.61
2019-02-03T22:22:33.005Z,49.64
2019-02-03T22:24:34.608Z,49.53
2019-02-03T22:26:36.215Z,49.37
2019-02-03T22:28:37.818Z,49.44
2019-02-03T22:30:39.412Z,49.31
2019-02-03T22:32:41.017Z,49.17
2019-02-03T22:34:42.672Z,50.13
2019-02-03T22:36:44.323Z,50.19
2019-02-03T22:38:45.978Z,50.69
2019-02-03T22:40:47.590Z,50.75
2019-02-03T22:42:49.193Z,50.71
2019-02-03T22:44:50.802Z,51.33
2019-02-03T22:46:52.459Z,51.21
2019-02-03T22:48:54.101Z,51.24
2019-02-03T22:50:55.709Z,51.65
2019-02-03T22:52:57.313Z,52.24
2019-02-03T22:54:58.953Z,52.16
2019-02-03T22:57:00.564Z,52.08
2019-02-03T22:59:02.181Z,52.25
2019-02-03T23:01:03.828Z,52.20
2019-02-03T23:03:05.433Z,52.13
2019-02-03T23:05:07.099Z,52.11
2019-02-03T23:07:08.712Z,52.12
2019-02-03T23:09:10.335Z,52.24
2019-02-03T23:11:11.966Z,52.43
2019-02-03T23:13:13.590Z,52.32
2019-02-03T23:15:15.249Z,52.64
2019-02-03T23:17:16.913Z,52.48
2019-02-03T23:19:18.523Z,52.55
2019-02-03T23:21:20.144Z,52.62
2019-02-03T23:23:21.870Z,52.67
2019-02-03T23:25:23.495Z,52.54
2019-02-03T23:27:25.101Z,52.68
2019-02-03T23:29:26.723Z,52.63
2019-02-03T23:31:28.340Z,52.78
2019-02-03T23:33:30.033Z,52.80
2019-02-03T23:35:31.662Z,52.77
2019-02-03T23:37:33.266Z,52.80
2019-02-03T23:39:34.874Z,52.96
2019-02-03T23:41:36.501Z,52.90
2019-02-03T23:43:38.103Z,53.07
2019-02-03T23:45:39.716Z,53.03
2019-02-03T23:47:41.328Z,53.11
2019-02-03T23:49:42.987Z,53.10
2019-02-03T23:51:44.618Z,53.18
2019-02-03T23:53:46.236Z,53.21
2019-02-03T23:55:47.851Z,53.13
2019-02-03T23:57:49.471Z,53.10
2019-02-03T23:59:51.107Z,53.16
